createdAt,value
2022-12-03T00:01:43.020Z,101574.09
2022-12-03T00:04:45.716Z,101577.28
2022-12-03T00:07:48.511Z,101580.06
2022-12-03T00:10:51.929Z,101566.47
2022-12-03T00:13:54.682Z,101566.69
2022-12-03T00:16:57.527Z,101571.84
2022-12-03T00:20:00.606Z,101577.34
2022-12-03T00:23:03.384Z,101577.09
2022-12-03T00:26:06.231Z,101571.47
2022-12-03T00:29:09.127Z,101558.84
2022-12-03T00:32:12.022Z,101568.31
2022-12-03T00:35:14.875Z,101564.38
2022-12-03T00:38:17.697Z,101573.13
2022-12-03T00:41:20.550Z,101571.78
2022-12-03T00:44:23.372Z,101573.59
2022-12-03T00:47:26.118Z,101578.38
2022-12-03T00:50:28.998Z,101584.84
2022-12-03T00:53:31.819Z,101581.09
2022-12-03T00:56:34.567Z,101581.44
2022-12-03T00:59:37.352Z,101573.59
2022-12-03T01:02:40.222Z,101580.91
2022-12-03T01:05:43.131Z,101585.63
2022-12-03T01:08:45.870Z,101578.19
2022-12-03T01:11:48.684Z,101577.59
2022-12-03T01:14:51.819Z,101571.66
2022-12-03T01:17:54.923Z,101573.69
2022-12-03T01:20:57.692Z,101586.25
2022-12-03T01:24:00.811Z,101583.06
2022-12-03T01:27:03.665Z,101581.16
2022-12-03T01:30:07.526Z,101582.38
2022-12-03T01:33:10.241Z,101575.63
2022-12-03T01:36:13.091Z,101568.81
2022-12-03T01:39:15.914Z,101570.69
2022-12-03T01:42:31.126Z,101563.22
2022-12-03T01:45:33.949Z,101566.34
2022-12-03T01:48:38.529Z,101565.28
2022-12-03T01:51:41.406Z,101562.66
2022-12-03T01:55:06.241Z,101567.66
2022-12-03T01:58:13.247Z,101561.97
2022-12-03T02:01:18.712Z,101567.44
2022-12-03T02:04:22.764Z,101561.00
2022-12-03T02:07:28.856Z,101555.94
2022-12-03T02:10:36.316Z,101562.47
2022-12-03T02:13:39.286Z,101567.41
2022-12-03T02:16:43.318Z,101563.81
2022-12-03T02:19:46.908Z,101558.91
2022-12-03T02:23:02.108Z,101553.09
2022-12-03T02:26:05.191Z,101557.03
2022-12-03T02:29:08.109Z,101559.34
2022-12-03T02:32:11.108Z,101562.56
2022-12-03T02:35:16.862Z,101558.00
2022-12-03T02:38:27.060Z,101562.97
2022-12-03T02:41:48.571Z,101559.84
2022-12-03T02:44:51.993Z,101560.63
2022-12-03T02:48:04.006Z,101565.63
2022-12-03T02:51:09.499Z,101563.16
2022-12-03T02:54:12.318Z,101562.22
2022-12-03T02:57:16.575Z,101560.66
2022-12-03T03:00:20.119Z,101554.53
2022-12-03T03:03:25.846Z,101548.94
2022-12-03T03:06:29.090Z,101561.03
2022-12-03T03:09:34.095Z,101570.09
2022-12-03T03:12:39.330Z,101555.88
2022-12-03T03:15:43.112Z,101557.31
2022-12-03T03:18:45.967Z,101563.91
2022-12-03T03:21:48.747Z,101560.94
2022-12-03T03:24:51.813Z,101566.16
2022-12-03T03:27:54.806Z,101574.81
2022-12-03T03:31:00.915Z,101570.53
2022-12-03T03:34:03.924Z,101569.59
2022-12-03T03:37:06.732Z,101566.16
2022-12-03T03:40:10.008Z,101558.31
2022-12-03T03:43:13.570Z,101572.22
2022-12-03T03:46:17.654Z,101575.91
2022-12-03T03:49:21.325Z,101575.78
2022-12-03T03:52:24.640Z,101579.44
2022-12-03T03:55:27.972Z,101573.50
2022-12-03T03:58:31.089Z,101567.94
2022-12-03T04:01:34.365Z,101569.59
2022-12-03T04:04:37.378Z,101570.44
2022-12-03T04:07:40.136Z,101563.91
2022-12-03T04:11:01.491Z,101569.13
2022-12-03T04:14:04.333Z,101564.94
2022-12-03T04:17:07.094Z,101561.75
2022-12-03T04:20:10.380Z,101570.53
2022-12-03T04:23:13.102Z,101557.63
2022-12-03T04:26:34.291Z,101569.38
2022-12-03T04:29:37.374Z,101563.47
2022-12-03T04:32:58.463Z,101565.31
2022-12-03T04:36:01.189Z,101566.78
2022-12-03T04:39:04.613Z,101565.56
2022-12-03T04:42:08.043Z,101558.47
2022-12-03T04:45:11.237Z,101563.56
2022-12-03T04:48:14.075Z,101573.66
2022-12-03T04:51:16.795Z,101568.34
2022-12-03T04:54:19.713Z,101576.16
2022-12-03T04:57:22.485Z,101571.88
2022-12-03T05:00:25.422Z,101566.41
2022-12-03T05:03:32.490Z,101563.69
2022-12-03T05:06:35.257Z,101568.50
2022-12-03T05:09:38.124Z,101578.97
2022-12-03T05:12:40.975Z,101577.34
2022-12-03T05:15:43.700Z,101569.50
2022-12-03T05:18:46.635Z,101568.41
2022-12-03T05:21:49.367Z,101566.72
2022-12-03T05:24:52.577Z,101576.50
2022-12-03T05:27:55.608Z,101564.25
2022-12-03T05:30:58.469Z,101570.44
2022-12-03T05:34:01.297Z,101559.72
2022-12-03T05:37:04.093Z,101564.53
2022-12-03T05:40:07.856Z,101558.56
2022-12-03T05:43:10.826Z,101574.13
2022-12-03T05:46:13.728Z,101569.75
2022-12-03T05:49:16.609Z,101566.72
2022-12-03T05:52:19.369Z,101571.00
2022-12-03T05:55:22.525Z,101576.34
2022-12-03T05:58:25.349Z,101585.03
2022-12-03T06:01:28.168Z,101578.97
2022-12-03T06:04:30.936Z,101586.91
2022-12-03T06:07:34.100Z,101583.47
2022-12-03T06:10:37.165Z,101593.91
2022-12-03T06:13:39.960Z,101592.25
2022-12-03T06:16:42.728Z,101596.41
2022-12-03T06:19:45.585Z,101594.50
2022-12-03T06:22:48.669Z,101588.91
2022-12-03T06:25:51.422Z,101599.00
2022-12-03T06:28:54.228Z,101598.63
2022-12-03T06:31:57.123Z,101600.94
2022-12-03T06:34:59.873Z,101603.22
2022-12-03T06:38:02.734Z,101599.88
2022-12-03T06:41:05.619Z,101594.66
2022-12-03T06:44:08.372Z,101598.94
2022-12-03T06:47:11.210Z,101613.63
2022-12-03T06:50:14.160Z,101606.38
2022-12-03T06:53:17.005Z,101611.47
2022-12-03T06:56:22.241Z,101609.09
2022-12-03T06:59:25.529Z,101610.66
2022-12-03T07:02:28.480Z,101605.41
2022-12-03T07:05:31.262Z,101608.25
2022-12-03T07:08:34.372Z,101605.78
2022-12-03T07:11:40.774Z,101600.19
2022-12-03T07:14:43.651Z,101586.59
2022-12-03T07:17:46.431Z,101592.59
2022-12-03T07:20:51.344Z,101598.59
2022-12-03T07:23:55.986Z,101596.34
2022-12-03T07:26:58.794Z,101595.81
2022-12-03T07:30:01.627Z,101587.97
2022-12-03T07:33:04.509Z,101588.34
2022-12-03T07:36:07.693Z,101582.22
2022-12-03T07:39:10.876Z,101576.66
2022-12-03T07:42:14.944Z,101562.66
2022-12-03T07:45:17.909Z,101563.09
2022-12-03T07:48:20.683Z,101577.63
2022-12-03T07:51:27.376Z,101576.19
2022-12-03T07:54:33.307Z,101585.75
2022-12-03T07:57:36.078Z,101582.84
2022-12-03T08:00:38.868Z,101579.41
2022-12-03T08:03:43.123Z,101583.91
2022-12-03T08:06:46.234Z,101576.16
2022-12-03T08:09:50.102Z,101576.16
2022-12-03T08:12:53.893Z,101587.34
2022-12-03T08:16:01.182Z,101590.94
2022-12-03T08:19:09.653Z,101585.25
2022-12-03T08:22:17.033Z,101581.78
2022-12-03T08:25:27.256Z,101579.78
2022-12-03T08:28:32.037Z,101597.44
2022-12-03T08:31:35.106Z,101588.03
2022-12-03T08:34:45.039Z,101587.66
2022-12-03T08:37:50.440Z,101594.28
2022-12-03T08:40:55.468Z,101596.78
2022-12-03T08:43:58.778Z,101587.13
2022-12-03T08:47:17.138Z,101600.25
2022-12-03T08:50:29.013Z,101603.50
2022-12-03T08:53:33.576Z,101606.63
2022-12-03T08:56:37.747Z,101606.22
2022-12-03T08:59:45.354Z,101601.03
2022-12-03T09:02:54.111Z,101601.44
2022-12-03T09:05:56.897Z,101598.47
2022-12-03T09:09:03.792Z,101582.56
2022-12-03T09:12:09.977Z,101586.22
2022-12-03T09:15:13.319Z,101584.59
2022-12-03T09:18:16.189Z,101582.13
2022-12-03T09:21:19.622Z,101577.22
2022-12-03T09:24:22.897Z,101581.13
2022-12-03T09:27:25.656Z,101582.78
2022-12-03T09:30:28.455Z,101570.06
2022-12-03T09:33:32.638Z,101572.00
2022-12-03T09:36:35.502Z,101570.50
2022-12-03T09:39:38.244Z,101575.66
2022-12-03T09:42:41.558Z,101573.91
2022-12-03T09:45:48.610Z,101574.72
2022-12-03T09:48:51.443Z,101567.75
2022-12-03T09:51:57.608Z,101568.03
2022-12-03T09:55:16.027Z,101562.66
2022-12-03T09:58:19.948Z,101564.00
2022-12-03T10:01:24.280Z,101551.31
2022-12-03T10:04:30.146Z,101535.50
2022-12-03T10:07:33.135Z,101532.22
2022-12-03T10:10:37.529Z,101534.22
2022-12-03T10:13:41.274Z,101537.56
2022-12-03T10:16:44.259Z,101530.34
2022-12-03T10:19:47.527Z,101518.41
2022-12-03T10:22:50.379Z,101509.31
2022-12-03T10:25:54.702Z,101511.53
2022-12-03T10:28:57.403Z,101502.56
2022-12-03T10:32:12.002Z,101501.19
2022-12-03T10:35:17.320Z,101501.22
2022-12-03T10:38:24.273Z,101503.84
2022-12-03T10:41:28.607Z,101491.28
2022-12-03T10:44:31.457Z,101491.16
2022-12-03T10:47:34.482Z,101491.81
2022-12-03T10:50:38.220Z,101498.50
2022-12-03T10:53:41.731Z,101485.44
2022-12-03T10:56:45.517Z,101484.94
2022-12-03T10:59:49.709Z,101481.53
2022-12-03T11:02:56.768Z,101478.00
2022-12-03T11:06:06.350Z,101482.03
2022-12-03T11:09:19.818Z,101476.03
2022-12-03T11:12:28.206Z,101466.56
2022-12-03T11:15:45.464Z,101463.59
2022-12-03T11:18:51.287Z,101469.69
2022-12-03T11:22:06.419Z,101460.22
2022-12-03T11:25:27.333Z,101455.44
2022-12-03T11:28:35.896Z,101449.78
2022-12-03T11:31:44.222Z,101446.84
2022-12-03T11:34:47.191Z,101451.47
2022-12-03T11:37:50.028Z,101453.38
2022-12-03T11:41:13.475Z,101456.50
2022-12-03T11:44:34.300Z,101459.19
2022-12-03T11:47:37.044Z,101459.38
2022-12-03T11:50:50.164Z,101448.00
2022-12-03T11:53:56.652Z,101455.72
2022-12-03T11:56:59.509Z,101453.59
2022-12-03T12:00:23.456Z,101454.28
2022-12-03T12:03:33.419Z,101455.59
2022-12-03T12:06:42.669Z,101441.59
2022-12-03T12:09:54.413Z,101452.78
2022-12-03T12:12:57.497Z,101456.75
2022-12-03T12:16:06.181Z,101458.75
2022-12-03T12:19:27.751Z,101452.28
2022-12-03T12:22:31.280Z,101440.56
2022-12-03T12:25:33.970Z,101434.47
2022-12-03T12:28:37.937Z,101426.41
2022-12-03T12:31:40.746Z,101425.56
2022-12-03T12:34:49.753Z,101421.31
2022-12-03T12:38:00.019Z,101432.69
2022-12-03T12:41:08.067Z,101430.53
2022-12-03T12:44:13.233Z,101430.53
2022-12-03T12:47:16.080Z,101424.44
2022-12-03T12:50:20.027Z,101432.00
2022-12-03T12:53:32.088Z,101443.06
2022-12-03T12:56:34.989Z,101437.47
2022-12-03T12:59:37.901Z,101437.97
2022-12-03T13:02:45.218Z,101439.28
2022-12-03T13:05:50.079Z,101433.00
2022-12-03T13:08:53.478Z,101437.59
2022-12-03T13:11:59.456Z,101430.69
2022-12-03T13:15:02.300Z,101422.28
2022-12-03T13:18:26.418Z,101429.88
2022-12-03T13:21:44.215Z,101436.13
2022-12-03T13:24:51.302Z,101431.38
2022-12-03T13:27:54.062Z,101410.91
2022-12-03T13:31:14.334Z,101420.47
2022-12-03T13:34:22.359Z,101427.91
2022-12-03T13:37:28.533Z,101438.78
2022-12-03T13:40:35.217Z,101440.06
2022-12-03T13:43:44.448Z,101428.72
2022-12-03T13:46:47.743Z,101423.91
2022-12-03T13:50:03.792Z,101433.31
2022-12-03T13:53:29.706Z,101433.16
2022-12-03T13:56:33.135Z,101426.53
2022-12-03T13:59:36.019Z,101427.53
2022-12-03T14:02:39.254Z,101436.63
2022-12-03T14:05:42.055Z,101429.00
2022-12-03T14:08:45.041Z,101436.22
2022-12-03T14:12:06.355Z,101422.91
2022-12-03T14:15:10.982Z,101419.28
2022-12-03T14:18:14.075Z,101428.84
2022-12-03T14:21:16.912Z,101421.72
2022-12-03T14:24:19.819Z,101428.31
2022-12-03T14:27:24.840Z,101412.66
2022-12-03T14:30:28.925Z,101407.88
2022-12-03T14:33:31.685Z,101406.41
2022-12-03T14:36:34.465Z,101412.81
2022-12-03T14:39:37.374Z,101418.41
2022-12-03T14:42:40.367Z,101412.50
2022-12-03T14:45:43.361Z,101419.88
2022-12-03T14:48:46.196Z,101432.78
2022-12-03T14:51:49.180Z,101422.38
2022-12-03T14:54:52.179Z,101427.78
2022-12-03T14:57:54.993Z,101416.59
2022-12-03T15:00:57.880Z,101413.16
2022-12-03T15:04:00.792Z,101423.19
2022-12-03T15:07:03.854Z,101416.59
2022-12-03T15:10:08.290Z,101413.78
2022-12-03T15:13:11.121Z,101418.56
2022-12-03T15:16:15.238Z,101417.75
2022-12-03T15:19:18.140Z,101422.00
2022-12-03T15:22:20.974Z,101428.78
2022-12-03T15:25:25.658Z,101427.13
2022-12-03T15:28:28.480Z,101429.28
2022-12-03T15:31:31.360Z,101434.91
2022-12-03T15:34:34.306Z,101435.41
2022-12-03T15:37:37.095Z,101436.88
2022-12-03T15:40:40.357Z,101433.59
2022-12-03T15:43:43.882Z,101434.91
2022-12-03T15:46:46.816Z,101423.56
2022-12-03T15:49:49.702Z,101415.16
2022-12-03T15:52:52.638Z,101420.25
2022-12-03T15:55:55.342Z,101424.22
2022-12-03T15:58:58.980Z,101430.66
2022-12-03T16:02:01.901Z,101433.44
2022-12-03T16:05:06.752Z,101438.06
2022-12-03T16:08:09.515Z,101441.81
2022-12-03T16:11:12.531Z,101439.19
2022-12-03T16:14:15.431Z,101439.66
2022-12-03T16:17:18.363Z,101447.56
2022-12-03T16:20:21.289Z,101449.41
2022-12-03T16:23:24.250Z,101446.59
2022-12-03T16:26:27.385Z,101450.53
2022-12-03T16:29:30.945Z,101445.91
2022-12-03T16:32:33.779Z,101450.34
2022-12-03T16:35:36.563Z,101447.34
2022-12-03T16:38:39.705Z,101440.72
2022-12-03T16:41:42.671Z,101442.72
2022-12-03T16:45:05.973Z,101446.66
2022-12-03T16:48:09.017Z,101456.81
2022-12-03T16:51:12.134Z,101453.31
2022-12-03T16:54:14.919Z,101457.22
2022-12-03T16:57:17.751Z,101452.59
2022-12-03T17:00:22.076Z,101446.81
2022-12-03T17:03:28.982Z,101450.75
2022-12-03T17:06:36.364Z,101455.50
2022-12-03T17:09:39.395Z,101455.31
2022-12-03T17:13:08.265Z,101449.53
2022-12-03T17:16:06.899Z,101451.47
2022-12-03T17:19:09.969Z,101442.56
2022-12-03T17:22:12.944Z,101454.69
2022-12-03T17:25:16.636Z,101457.09
2022-12-03T17:28:19.737Z,101454.25
2022-12-03T17:31:22.664Z,101450.44
2022-12-03T17:34:25.509Z,101456.00
2022-12-03T17:37:28.388Z,101453.84
2022-12-03T17:40:31.177Z,101455.63
2022-12-03T17:43:34.240Z,101466.09
2022-12-03T17:46:37.254Z,101460.84
2022-12-03T17:49:40.707Z,101464.44
2022-12-03T17:52:43.532Z,101455.50
2022-12-03T17:55:47.109Z,101462.88
2022-12-03T17:58:50.370Z,101471.06
2022-12-03T18:01:53.210Z,101476.47
2022-12-03T18:04:56.006Z,101473.97
2022-12-03T18:07:58.967Z,101460.31
2022-12-03T18:11:01.818Z,101465.22
2022-12-03T18:14:04.709Z,101457.31
2022-12-03T18:17:07.485Z,101456.50
2022-12-03T18:20:10.638Z,101453.34
2022-12-03T18:23:13.916Z,101446.25
2022-12-03T18:26:17.144Z,101446.94
2022-12-03T18:29:20.310Z,101441.53
2022-12-03T18:32:29.393Z,101440.19
2022-12-03T18:35:32.826Z,101440.47
2022-12-03T18:38:35.749Z,101445.38
2022-12-03T18:41:38.783Z,101438.22
2022-12-03T18:44:46.352Z,101444.25
2022-12-03T18:47:52.333Z,101440.09
2022-12-03T18:50:56.591Z,101446.78
2022-12-03T18:53:59.538Z,101438.06
2022-12-03T18:57:02.323Z,101441.66
2022-12-03T19:00:13.066Z,101440.16
2022-12-03T19:03:16.585Z,101438.09
2022-12-03T19:06:21.320Z,101433.31
2022-12-03T19:09:24.562Z,101435.56
2022-12-03T19:12:27.811Z,101434.50
2022-12-03T19:15:30.800Z,101430.34
2022-12-03T19:18:34.219Z,101429.81
2022-12-03T19:21:37.498Z,101440.75
2022-12-03T19:24:40.750Z,101437.91
2022-12-03T19:27:43.655Z,101439.97
2022-12-03T19:30:46.587Z,101442.22
2022-12-03T19:33:50.985Z,101445.28
2022-12-03T19:36:53.752Z,101450.69
2022-12-03T19:39:57.412Z,101449.31
2022-12-03T19:43:00.844Z,101444.50
2022-12-03T19:46:05.188Z,101450.56
2022-12-03T19:49:09.495Z,101450.16
2022-12-03T19:52:12.552Z,101451.72
2022-12-03T19:55:19.629Z,101449.66
2022-12-03T19:58:22.520Z,101448.31
2022-12-03T20:01:28.772Z,101443.06
2022-12-03T20:04:32.006Z,101437.41
2022-12-03T20:07:35.444Z,101436.28
2022-12-03T20:10:38.578Z,101421.22
2022-12-03T20:13:42.706Z,101416.81
2022-12-03T20:16:47.493Z,101421.38
2022-12-03T20:19:51.728Z,101436.44
2022-12-03T20:22:55.055Z,101441.97
2022-12-03T20:25:58.494Z,101433.69
2022-12-03T20:29:01.661Z,101443.47
2022-12-03T20:32:07.230Z,101449.97
2022-12-03T20:35:10.478Z,101447.66
2022-12-03T20:38:15.043Z,101454.13
2022-12-03T20:41:18.822Z,101456.75
2022-12-03T20:44:21.815Z,101453.31
2022-12-03T20:47:24.896Z,101461.34
2022-12-03T20:50:27.970Z,101467.00
2022-12-03T20:53:30.963Z,101456.50
2022-12-03T20:56:36.490Z,101463.53
2022-12-03T20:59:40.973Z,101465.34
2022-12-03T21:02:45.287Z,101470.75
2022-12-03T21:05:48.348Z,101462.31
2022-12-03T21:08:53.919Z,101463.69
2022-12-03T21:11:56.984Z,101478.47
2022-12-03T21:14:59.764Z,101475.31
2022-12-03T21:18:02.780Z,101467.00
2022-12-03T21:21:06.848Z,101468.97
2022-12-03T21:24:11.721Z,101473.63
2022-12-03T21:27:19.996Z,101468.66
2022-12-03T21:30:24.645Z,101461.91
2022-12-03T21:33:27.992Z,101458.75
2022-12-03T21:36:31.197Z,101460.66
2022-12-03T21:39:34.121Z,101473.91
2022-12-03T21:42:37.445Z,101455.81
2022-12-03T21:45:41.239Z,101452.41
2022-12-03T21:48:44.955Z,101443.16
2022-12-03T21:51:47.958Z,101440.25
2022-12-03T21:54:54.254Z,101427.28
2022-12-03T21:57:57.043Z,101425.91
2022-12-03T22:01:00.194Z,101425.50
2022-12-03T22:04:03.446Z,101420.00
2022-12-03T22:07:06.829Z,101417.91
2022-12-03T22:10:11.336Z,101419.13
2022-12-03T22:13:14.144Z,101423.84
2022-12-03T22:16:22.205Z,101420.81
2022-12-03T22:19:25.807Z,101422.88
2022-12-03T22:22:28.727Z,101409.25
2022-12-03T22:25:31.467Z,101406.75
2022-12-03T22:28:35.144Z,101412.25
2022-12-03T22:31:38.217Z,101422.97
2022-12-03T22:34:42.218Z,101428.94
2022-12-03T22:37:45.031Z,101418.72
2022-12-03T22:40:47.856Z,101415.84
2022-12-03T22:43:50.847Z,101414.88
2022-12-03T22:46:53.777Z,101414.16
2022-12-03T22:49:57.771Z,101416.94
2022-12-03T22:53:00.712Z,101425.19
2022-12-03T22:56:03.521Z,101413.06
2022-12-03T22:59:06.385Z,101412.38
2022-12-03T23:02:09.156Z,101416.91
2022-12-03T23:05:11.903Z,101413.47
2022-12-03T23:08:18.302Z,101415.25
2022-12-03T23:11:21.810Z,101427.22
2022-12-03T23:14:24.627Z,101426.56
2022-12-03T23:17:27.403Z,101413.97
2022-12-03T23:20:30.236Z,101427.47
2022-12-03T23:23:32.991Z,101414.09
2022-12-03T23:26:37.527Z,101412.72
2022-12-03T23:29:40.485Z,101406.91
2022-12-03T23:32:44.579Z,101390.38
2022-12-03T23:35:47.478Z,101387.88
2022-12-03T23:38:50.679Z,101395.16
2022-12-03T23:41:54.084Z,101398.31
2022-12-03T23:44:56.885Z,101384.81
2022-12-03T23:48:00.121Z,101373.22
2022-12-03T23:51:08.131Z,101384.91
2022-12-03T23:54:12.282Z,101388.19
2022-12-03T23:57:16.229Z,101389.69
